Time;durP1;ratioP1;P1;durP2;ratioP2;P2;SDS_P1;SDS_P2;PMS_P1;PMS_P2;Temp;Humidity;BMP_temperature;BMP_pressure;BME280_temperature;BME280_humidity;BME280_pressure;Samples;Min_cycle;Max_cycle;Signal;HPM_P1;HPM_P2
2022/11/29 00:01:06;;;;;;;462.05;152.70;;;1.70;99.90;;;;;;5135375;28;20031;-66
2022/11/29 00:03:33;;;;;;;517.65;166.02;;;1.60;99.90;;;;;;5135555;28;20152;-67
2022/11/29 00:06:07;;;;;;;585.78;181.20;;;1.50;99.90;;;;;;5135553;28;20519;-66
2022/11/29 00:08:33;;;;;;;465.20;156.55;;;1.50;99.90;;;;;;5135223;28;20038;-66
2022/11/29 00:11:13;;;;;;;463.38;156.77;;;1.50;99.90;;;;;;5135500;27;20019;-66
2022/11/29 00:13:39;;;;;;;681.63;191.48;;;1.60;99.90;;;;;;5139195;27;20392;-67
2022/11/29 00:16:08;;;;;;;616.95;198.00;;;1.50;99.90;;;;;;5139470;27;20046;-66
2022/11/29 00:18:34;;;;;;;643.00;213.20;;;1.50;99.90;;;;;;5139420;27;20473;-66
2022/11/29 00:21:04;;;;;;;488.33;165.75;;;1.60;99.90;;;;;;5139407;27;20023;-66
2022/11/29 00:23:30;;;;;;;538.03;168.30;;;1.60;99.90;;;;;;5139454;27;20038;-66
2022/11/29 00:26:04;;;;;;;511.63;158.80;;;1.60;99.90;;;;;;5139462;27;20416;-66
2022/11/29 00:28:31;;;;;;;426.42;141.30;;;1.50;99.90;;;;;;5139381;27;20035;-66
2022/11/29 00:30:57;;;;;;;463.55;153.65;;;1.60;99.90;;;;;;5139197;27;20083;-67
2022/11/29 00:33:23;;;;;;;561.60;170.85;;;1.60;99.90;;;;;;5139162;27;20055;-66
2022/11/29 00:35:48;;;;;;;461.85;150.13;;;1.60;99.90;;;;;;5139401;27;20100;-66
2022/11/29 00:38:14;;;;;;;558.40;174.85;;;1.50;99.90;;;;;;5139083;27;20034;-66
2022/11/29 00:40:40;;;;;;;520.42;164.02;;;1.60;99.90;;;;;;5139082;27;20019;-66
2022/11/29 00:43:06;;;;;;;557.67;179.48;;;1.50;99.90;;;;;;5139072;27;20163;-66
2022/11/29 00:45:32;;;;;;;581.67;170.02;;;1.60;99.90;;;;;;5139066;27;20064;-66
2022/11/29 00:47:58;;;;;;;536.85;167.77;;;1.60;99.90;;;;;;5138885;27;20023;-66
2022/11/29 00:50:24;;;;;;;580.67;178.00;;;1.60;99.90;;;;;;5139060;27;20023;-66
2022/11/29 00:52:50;;;;;;;472.40;150.18;;;1.50;99.90;;;;;;5138928;27;20037;-67
2022/11/29 00:55:15;;;;;;;412.17;137.25;;;1.40;99.90;;;;;;5138430;27;20027;-66
2022/11/29 00:57:41;;;;;;;435.15;139.48;;;1.50;99.90;;;;;;5138763;27;20463;-66
2022/11/29 01:00:08;;;;;;;494.35;152.15;;;1.50;99.90;;;;;;5138886;27;20015;-66
2022/11/29 01:02:34;;;;;;;455.02;136.45;;;1.50;99.90;;;;;;5138743;27;20080;-67
2022/11/29 01:05:00;;;;;;;469.17;140.57;;;1.50;99.90;;;;;;5138655;27;20438;-66
2022/11/29 01:07:25;;;;;;;517.28;147.65;;;1.40;99.90;;;;;;5138570;27;20497;-67
2022/11/29 01:09:51;;;;;;;474.85;140.38;;;1.30;99.90;;;;;;5138561;27;20529;-66
2022/11/29 01:12:17;;;;;;;624.25;162.82;;;1.50;99.90;;;;;;5138501;27;20080;-67
2022/11/29 01:14:43;;;;;;;402.17;136.50;;;1.40;99.90;;;;;;5137986;27;20058;-67
2022/11/29 01:17:09;;;;;;;425.75;134.65;;;1.40;99.90;;;;;;5136970;28;20031;-66
2022/11/29 01:19:38;;;;;;;606.75;167.85;;;1.60;99.90;;;;;;5137097;28;20027;-66
2022/11/29 01:22:03;;;;;;;418.92;137.32;;;1.50;99.90;;;;;;5137030;28;20038;-66
2022/11/29 01:24:29;;;;;;;450.60;146.43;;;1.60;99.90;;;;;;5136642;27;20023;-66
2022/11/29 01:26:55;;;;;;;485.65;146.23;;;1.60;99.90;;;;;;5137105;28;20034;-67
2022/11/29 01:29:21;;;;;;;436.42;139.75;;;1.50;99.90;;;;;;5137197;28;20035;-67
2022/11/29 01:31:47;;;;;;;449.80;142.63;;;1.50;99.90;;;;;;5136867;28;20027;-66
2022/11/29 01:34:13;;;;;;;570.67;154.57;;;1.50;99.90;;;;;;5136878;28;20035;-66
2022/11/29 01:36:39;;;;;;;364.08;123.97;;;1.60;99.90;;;;;;5137012;28;20058;-66
2022/11/29 01:39:05;;;;;;;374.85;126.43;;;1.70;99.90;;;;;;5137099;28;20110;-66
2022/11/29 01:41:34;;;;;;;329.10;116.63;;;1.80;99.90;;;;;;5136949;28;20031;-66
2022/11/29 01:44:20;;;;;;;325.75;113.80;;;1.60;99.90;;;;;;5136732;28;20023;-66
2022/11/29 01:46:47;;;;;;;329.23;120.82;;;1.50;99.90;;;;;;5135314;28;20427;-66
2022/11/29 01:49:47;;;;;;;328.38;120.85;;;1.50;99.90;;;;;;5136695;28;20023;-66
2022/11/29 01:52:24;;;;;;;307.60;115.90;;;1.50;99.90;;;;;;5118253;28;20046;-66
2022/11/29 01:54:57;;;;;;;285.13;106.60;;;1.40;99.90;;;;;;5136433;28;20087;-66
2022/11/29 01:57:24;;;;;;;260.23;94.55;;;1.50;99.90;;;;;;5136698;28;20157;-66
2022/11/29 01:59:55;;;;;;;226.73;88.90;;;1.40;99.90;;;;;;5136570;28;20083;-66
2022/11/29 02:02:40;;;;;;;253.10;92.97;;;1.50;99.90;;;;;;5136542;28;20023;-66
2022/11/29 02:05:06;;;;;;;231.10;88.00;;;1.40;99.90;;;;;;5136456;28;20129;-67
2022/11/29 02:07:32;;;;;;;223.23;92.95;;;1.40;99.90;;;;;;5136405;28;20460;-66
2022/11/29 02:09:58;;;;;;;202.77;85.50;;;1.40;99.90;;;;;;5136390;28;20034;-66
2022/11/29 02:12:55;;;;;;;196.27;80.78;;;1.40;99.90;;;;;;5136594;28;20107;-67
2022/11/29 02:15:33;;;;;;;182.57;75.45;;;1.50;99.90;;;;;;5084171;27;1480318;-66
2022/11/29 02:18:14;;;;;;;172.73;74.15;;;1.40;99.90;;;;;;5137144;27;20463;-66
2022/11/29 02:20:46;;;;;;;158.15;69.40;;;1.50;99.90;;;;;;5118703;27;20087;-66
2022/11/29 02:23:29;;;;;;;157.13;69.70;;;1.60;99.90;;;;;;5137186;27;20123;-66
2022/11/29 02:26:20;;;;;;;144.93;63.22;;;1.50;99.90;;;;;;5137079;27;20016;-66
2022/11/29 02:29:23;;;;;;;143.90;64.15;;;1.50;99.90;;;;;;5137100;27;20431;-66
2022/11/29 02:32:33;;;;;;;134.80;59.33;;;1.50;99.90;;;;;;5136843;27;20381;-67
2022/11/29 02:35:10;;;;;;;147.57;62.85;;;1.60;99.90;;;;;;5136155;27;20031;-66
2022/11/29 02:37:54;;;;;;;140.25;61.85;;;1.50;99.90;;;;;;5136931;27;20057;-66
2022/11/29 02:40:38;;;;;;;133.63;60.78;;;1.50;99.90;;;;;;5136904;27;20019;-66
2022/11/29 02:43:36;;;;;;;136.38;58.40;;;1.50;99.90;;;;;;5136687;27;20069;-67
2022/11/29 02:46:14;;;;;;;146.75;63.35;;;1.50;99.90;;;;;;5136591;27;20381;-66
2022/11/29 02:49:05;;;;;;;139.27;60.67;;;1.40;99.90;;;;;;5136613;27;20106;-67
2022/11/29 02:51:40;;;;;;;152.73;60.85;;;1.50;99.90;;;;;;5136518;27;20023;-66
2022/11/29 02:54:32;;;;;;;171.30;65.53;;;1.50;99.90;;;;;;5136538;27;20026;-66
2022/11/29 02:57:09;;;;;;;156.82;63.28;;;1.50;99.90;;;;;;5136324;27;20035;-66
2022/11/29 03:00:03;;;;;;;176.27;67.00;;;1.40;99.90;;;;;;5136487;27;20034;-66
2022/11/29 03:02:50;;;;;;;169.52;65.00;;;1.50;99.90;;;;;;5136463;27;20543;-67
2022/11/29 03:05:34;;;;;;;186.73;69.68;;;1.30;99.90;;;;;;5136426;27;20031;-66
2022/11/29 03:08:24;;;;;;;193.68;69.50;;;1.20;99.90;;;;;;5136055;27;20031;-67
2022/11/29 03:11:08;;;;;;;170.10;65.90;;;1.20;99.90;;;;;;5136428;27;20023;-67
2022/11/29 03:13:52;;;;;;;160.02;62.97;;;1.20;99.90;;;;;;5136121;27;20023;-67
2022/11/29 03:16:44;;;;;;;162.75;64.50;;;1.20;99.90;;;;;;5136027;27;20039;-66
2022/11/29 03:19:29;;;;;;;158.77;61.60;;;1.20;99.90;;;;;;5135994;27;20019;-67
2022/11/29 03:22:10;;;;;;;147.10;63.60;;;1.20;99.90;;;;;;5136222;27;20027;-67
2022/11/29 03:24:52;;;;;;;147.25;63.65;;;1.20;99.90;;;;;;5136151;27;20049;-67
2022/11/29 03:27:34;;;;;;;154.90;64.45;;;1.30;99.90;;;;;;5135927;27;20034;-66
2022/11/29 03:30:04;;;;;;;183.57;72.53;;;1.30;99.90;;;;;;5135961;27;20106;-67
2022/11/29 03:33:21;;;;;;;175.27;64.97;;;1.30;99.90;;;;;;5135873;27;20023;-66
2022/11/29 03:35:56;;;;;;;147.45;61.72;;;1.30;99.90;;;;;;5079144;27;20450;-66
2022/11/29 03:38:31;;;;;;;173.73;72.55;;;1.30;99.90;;;;;;5135931;27;20051;-66
2022/11/29 03:41:17;;;;;;;161.75;64.43;;;1.50;99.90;;;;;;5135809;27;20061;-67
2022/11/29 03:44:07;;;;;;;147.95;60.15;;;1.60;99.90;;;;;;5135730;27;20031;-66
2022/11/29 03:46:48;;;;;;;148.75;59.42;;;1.40;99.90;;;;;;5117416;28;20063;-67
2022/11/29 03:49:14;;;;;;;;;;;1.30;99.90;;;;;;5136091;27;20404;-67
2022/11/29 03:52:17;;;;;;;123.93;52.58;;;1.10;99.90;;;;;;5135642;27;19914;-67
2022/11/29 03:54:59;;;;;;;116.68;50.67;;;1.20;99.90;;;;;;5082971;27;20043;-66
2022/11/29 03:57:39;;;;;;;114.30;52.13;;;1.20;99.90;;;;;;5135549;27;20023;-67
2022/11/29 04:00:11;;;;;;;138.55;61.83;;;1.10;99.90;;;;;;5135627;28;20039;-67
2022/11/29 04:02:49;;;;;;;131.43;59.22;;;0.90;99.90;;;;;;5135575;28;20065;-67
2022/11/29 04:05:24;;;;;;;149.27;64.85;;;1.00;99.90;;;;;;5135572;28;20024;-67
2022/11/29 04:08:25;;;;;;;156.43;65.97;;;1.00;99.90;;;;;;5135392;28;20396;-67
2022/11/29 04:11:21;;;;;;;143.27;58.50;;;1.00;99.90;;;;;;5135698;28;20326;-67
2022/11/29 04:14:48;;;;;;;138.68;60.53;;;1.00;99.90;;;;;;5135423;28;20106;-66
2022/11/29 04:17:28;;;;;;;137.55;58.40;;;1.00;99.90;;;;;;5031968;28;20038;-66
2022/11/29 04:20:15;;;;;;;143.52;59.30;;;1.10;99.90;;;;;;5135507;28;20019;-66
2022/11/29 04:23:19;;;;;;;132.80;58.72;;;1.30;99.90;;;;;;5135357;28;20485;-66
2022/11/29 04:26:19;;;;;;;149.98;62.03;;;1.40;99.90;;;;;;5135212;28;20030;-67
2022/11/29 04:28:59;;;;;;;126.53;55.63;;;1.40;99.90;;;;;;5135481;28;20468;-66
2022/11/29 04:31:31;;;;;;;138.30;54.95;;;1.40;99.90;;;;;;5135228;28;20027;-67
2022/11/29 04:34:15;;;;;;;139.07;55.88;;;1.30;99.90;;;;;;5135162;28;20465;-66
2022/11/29 04:37:18;;;;;;;129.38;53.97;;;1.30;99.90;;;;;;5135287;28;20389;-67
2022/11/29 04:40:03;;;;;;;122.57;51.95;;;1.30;99.90;;;;;;5135209;28;20031;-67
2022/11/29 04:42:41;;;;;;;119.18;48.50;;;1.30;99.90;;;;;;5135217;28;20019;-66
2022/11/29 04:45:24;;;;;;;109.18;49.55;;;1.50;99.90;;;;;;5135391;28;20028;-67
2022/11/29 04:48:15;;;;;;;101.95;47.65;;;1.60;99.90;;;;;;5135037;28;20059;-66
2022/11/29 04:51:17;;;;;;;103.70;48.83;;;1.70;99.90;;;;;;5135069;28;20023;-67
2022/11/29 04:53:49;;;;;;;277.55;119.28;;;1.50;99.90;;;;;;5135028;28;20051;-67
2022/11/29 04:56:34;;;;;;;107.13;51.17;;;1.50;99.90;;;;;;5134864;28;20049;-66
2022/11/29 04:59:32;;;;;;;100.32;45.85;;;1.60;99.90;;;;;;5137546;27;20138;-67
2022/11/29 05:02:09;;;;;;;95.70;46.22;;;1.60;99.90;;;;;;5138222;27;20152;-67
2022/11/29 05:04:50;;;;;;;117.45;48.65;;;1.50;99.90;;;;;;5138862;27;20038;-67
2022/11/29 05:07:33;;;;;;;96.15;43.55;;;1.30;99.90;;;;;;5120035;27;20038;-66
2022/11/29 05:10:24;;;;;;;93.95;42.22;;;1.20;99.90;;;;;;5138613;27;20113;-66
2022/11/29 05:13:09;;;;;;;;;;;1.30;99.90;;;;;;5139045;27;20031;-67
2022/11/29 05:15:53;;;;;;;118.95;49.03;;;1.20;99.90;;;;;;5138280;27;20058;-67
2022/11/29 05:18:40;;;;;;;118.85;50.08;;;1.20;99.90;;;;;;5138628;27;20019;-66
2022/11/29 05:21:32;;;;;;;118.95;51.88;;;1.30;99.90;;;;;;5138441;27;20072;-67
2022/11/29 05:24:09;;;;;;;126.97;52.58;;;1.30;99.90;;;;;;5138347;27;20023;-66
2022/11/29 05:26:53;;;;;;;132.98;56.70;;;1.40;99.90;;;;;;5138290;27;20031;-66
2022/11/29 05:29:46;;;;;;;136.77;54.35;;;1.30;99.90;;;;;;5138063;27;20027;-67
2022/11/29 05:32:21;;;;;;;145.45;54.78;;;1.30;99.90;;;;;;5098782;27;20074;-67
2022/11/29 05:34:46;;;;;;;173.63;63.33;;;1.30;99.90;;;;;;5138128;27;20023;-67
2022/11/29 05:37:12;;;;;;;189.65;69.65;;;1.20;99.90;;;;;;5138049;27;20457;-67
2022/11/29 05:40:05;;;;;;;155.70;62.53;;;1.20;99.90;;;;;;5138241;27;20024;-67
2022/11/29 05:42:43;;;;;;;174.80;62.95;;;1.30;99.90;;;;;;5137687;27;20019;-67
2022/11/29 05:45:15;;;;;;;154.90;60.08;;;1.20;99.90;;;;;;5137920;27;20035;-66
2022/11/29 05:48:02;;;;;;;168.88;63.08;;;1.30;99.90;;;;;;5138041;27;20026;-67
2022/11/29 05:50:47;;;;;;;148.85;60.00;;;1.20;99.90;;;;;;5137765;27;20031;-66
2022/11/29 05:53:21;;;;;;;157.38;61.70;;;1.30;99.90;;;;;;5137666;27;20488;-66
2022/11/29 05:56:36;;;;;;;145.77;59.45;;;1.30;99.90;;;;;;5137583;27;20066;-67
2022/11/29 05:59:08;;;;;;;144.93;59.25;;;1.30;99.90;;;;;;5034016;28;20033;-66
2022/11/29 06:01:46;;;;;;;155.23;60.28;;;1.30;99.90;;;;;;5034028;28;20541;-67
2022/11/29 06:04:30;;;;;;;149.35;58.70;;;1.50;99.90;;;;;;5033890;28;20038;-67
2022/11/29 06:07:51;;;;;;;130.80;52.72;;;1.50;99.90;;;;;;5033865;28;20033;-67
2022/11/29 06:10:21;;;;;;;103.15;45.83;;;1.50;99.90;;;;;;5028128;28;20136;-67
2022/11/29 06:12:59;;;;;;;96.35;42.67;;;1.50;99.90;;;;;;5033615;28;20623;-67
2022/11/29 06:15:55;;;;;;;111.03;46.58;;;1.50;99.90;;;;;;5034059;28;20478;-67
2022/11/29 06:18:37;;;;;;;89.60;39.78;;;1.50;99.90;;;;;;5034316;28;20035;-67
2022/11/29 06:21:11;;;;;;;96.25;42.58;;;1.60;99.90;;;;;;5034225;28;20091;-67
2022/11/29 06:23:42;;;;;;;92.95;40.28;;;1.40;99.90;;;;;;5032320;28;20521;-67
2022/11/29 06:26:08;;;;;;;126.03;53.17;;;1.50;99.90;;;;;;5047796;28;20029;-66
2022/11/29 06:28:45;;;;;;;147.98;61.95;;;1.70;99.90;;;;;;5031730;28;20029;-66
2022/11/29 06:31:22;;;;;;;119.20;52.60;;;1.70;99.90;;;;;;5121570;27;20024;-67
2022/11/29 06:34:08;;;;;;;118.43;50.17;;;1.60;99.90;;;;;;5134636;27;20023;-67
2022/11/29 06:36:52;;;;;;;131.70;54.45;;;1.70;99.90;;;;;;5116138;27;20111;-66
2022/11/29 06:39:18;;;;;;;125.72;50.78;;;1.80;99.90;;;;;;5156546;27;20393;-66
2022/11/29 06:41:45;;;;;;;122.90;50.45;;;1.80;99.90;;;;;;5139230;27;20033;-66
2022/11/29 06:44:12;;;;;;;115.90;49.13;;;1.90;99.90;;;;;;5121696;27;20426;-66
2022/11/29 06:46:50;;;;;;;112.97;48.40;;;1.90;99.90;;;;;;5125406;27;20461;-66
2022/11/29 06:49:44;;;;;;;114.88;47.90;;;2.00;99.90;;;;;;5131334;27;20461;-66
2022/11/29 06:52:46;;;;;;;116.85;44.70;;;2.00;99.90;;;;;;5121631;27;20045;-66
2022/11/29 06:55:39;;;;;;;96.95;44.42;;;2.00;99.90;;;;;;5109934;27;20038;-66
2022/11/29 06:58:31;;;;;;;139.88;58.28;;;2.10;99.90;;;;;;5135533;27;20031;-66
2022/11/29 07:01:27;;;;;;;127.18;52.63;;;2.10;99.90;;;;;;5122935;27;20023;-66
2022/11/29 07:04:40;;;;;;;154.90;59.15;;;2.20;99.90;;;;;;5127944;27;20087;-66
2022/11/29 07:07:16;;;;;;;146.35;55.88;;;2.20;99.90;;;;;;5059590;28;20043;-66
2022/11/29 07:09:43;;;;;;;145.57;58.03;;;2.30;99.90;;;;;;5052987;28;20029;-66
2022/11/29 07:12:09;;;;;;;138.73;55.47;;;2.30;99.90;;;;;;5053114;28;20063;-66
2022/11/29 07:14:35;;;;;;;129.27;53.60;;;2.30;99.90;;;;;;5059689;28;20045;-66
2022/11/29 07:17:18;;;;;;;141.95;57.55;;;2.40;99.90;;;;;;5051203;28;20413;-66
2022/11/29 07:20:12;;;;;;;161.27;64.32;;;2.40;99.90;;;;;;5046783;28;20116;-66
2022/11/29 07:22:56;;;;;;;158.50;68.10;;;2.60;99.90;;;;;;5050361;28;20048;-66
2022/11/29 07:25:34;;;;;;;186.82;71.38;;;2.80;99.90;;;;;;5032214;28;20037;-66
2022/11/29 07:28:15;;;;;;;221.43;72.93;;;2.90;99.90;;;;;;5050667;28;20060;-66
2022/11/29 07:30:52;;;;;;;;;;;3.00;99.90;;;;;;5052741;28;20064;-66
2022/11/29 07:33:31;;;;;;;322.17;95.03;;;2.80;99.90;;;;;;5052307;28;20675;-66
2022/11/29 07:35:56;;;;;;;341.02;98.25;;;2.90;99.90;;;;;;5048630;28;20029;-66
2022/11/29 07:38:46;;;;;;;346.92;104.75;;;3.00;99.90;;;;;;5106794;27;20050;-67
2022/11/29 07:41:24;;;;;;;349.58;116.18;;;2.90;99.90;;;;;;5129354;27;20033;-66
2022/11/29 07:43:57;;;;;;;344.67;110.45;;;2.70;99.90;;;;;;5124735;27;20023;-66
2022/11/29 07:46:24;;;;;;;331.15;112.60;;;2.70;99.90;;;;;;5124222;27;20030;-66
2022/11/29 07:48:50;;;;;;;304.85;107.30;;;2.90;99.90;;;;;;5118450;28;20123;-66
2022/11/29 07:51:16;;;;;;;338.65;114.70;;;2.80;99.90;;;;;;5111707;27;20423;-66
2022/11/29 07:53:43;;;;;;;327.23;114.47;;;2.80;99.90;;;;;;5105514;28;20081;-66
2022/11/29 07:56:11;;;;;;;323.52;116.82;;;2.80;99.90;;;;;;5106910;27;20027;-66
2022/11/29 07:58:37;;;;;;;310.10;118.03;;;3.00;99.90;;;;;;5108077;28;20106;-66
2022/11/29 08:01:03;;;;;;;322.73;118.32;;;3.10;99.90;;;;;;5104928;28;20106;-66
2022/11/29 08:03:29;;;;;;;323.83;118.80;;;3.20;99.90;;;;;;5114315;28;20034;-66
2022/11/29 08:05:55;;;;;;;336.55;125.63;;;3.40;99.90;;;;;;5108598;28;20457;-66
2022/11/29 08:08:21;;;;;;;348.10;130.45;;;3.60;99.90;;;;;;5111010;28;20498;-66
2022/11/29 08:10:47;;;;;;;362.17;135.13;;;3.70;99.90;;;;;;5106785;28;20031;-66
2022/11/29 08:13:13;;;;;;;336.17;128.30;;;3.60;99.90;;;;;;5106308;28;20443;-66
2022/11/29 08:15:46;;;;;;;338.95;126.97;;;3.50;99.90;;;;;;5106297;28;20123;-66
2022/11/29 08:18:13;;;;;;;354.45;130.98;;;3.60;99.90;;;;;;5113676;28;20024;-66
2022/11/29 08:20:40;;;;;;;358.08;129.68;;;3.70;99.90;;;;;;5110481;28;20135;-66
2022/11/29 08:23:09;;;;;;;329.75;122.43;;;3.70;99.90;;;;;;5110483;28;20032;-66
2022/11/29 08:25:35;;;;;;;341.63;119.47;;;3.90;99.90;;;;;;5108521;28;20112;-66
2022/11/29 08:28:02;;;;;;;307.05;110.00;;;4.10;99.90;;;;;;5099296;28;20028;-66
2022/11/29 08:30:28;;;;;;;301.20;109.25;;;4.10;99.90;;;;;;5105934;28;20417;-66
2022/11/29 08:32:53;;;;;;;302.45;112.35;;;4.10;99.90;;;;;;5110204;28;20112;-66
2022/11/29 08:35:21;;;;;;;304.73;103.95;;;4.20;99.90;;;;;;5105096;27;20413;-66
2022/11/29 08:37:47;;;;;;;288.23;100.22;;;4.10;99.90;;;;;;5105736;28;20320;-66
2022/11/29 08:40:13;;;;;;;313.38;100.47;;;3.90;99.90;;;;;;5105701;27;20020;-66
2022/11/29 08:42:39;;;;;;;281.67;95.38;;;4.00;99.90;;;;;;5103077;27;20108;-66
2022/11/29 08:45:06;;;;;;;298.77;92.10;;;4.00;99.90;;;;;;5110834;27;20051;-66
2022/11/29 08:47:35;;;;;;;289.13;92.57;;;4.00;99.90;;;;;;5104474;28;20027;-66
2022/11/29 08:50:06;;;;;;;260.30;83.20;;;3.90;99.90;;;;;;5098788;28;20116;-66
2022/11/29 08:55:26;;;;;;;300.70;83.38;;;4.10;99.90;;;;;;5106697;27;20028;-66
2022/11/29 08:57:59;;;;;;;291.85;85.00;;;4.20;99.90;;;;;;5101088;27;20042;-66
2022/11/29 09:00:25;;;;;;;284.73;90.03;;;4.30;99.90;;;;;;5130098;27;20095;-66
2022/11/29 09:02:51;;;;;;;312.45;99.22;;;4.20;99.90;;;;;;5112377;27;20441;-66
2022/11/29 09:05:17;;;;;;;347.60;97.38;;;4.20;99.90;;;;;;5107853;27;20116;-67
2022/11/29 09:07:47;;;;;;;295.92;91.93;;;4.10;99.90;;;;;;5107076;28;20035;-67
2022/11/29 09:10:14;;;;;;;321.75;95.25;;;3.90;99.90;;;;;;5111913;28;20028;-66
2022/11/29 09:12:43;;;;;;;348.92;95.20;;;4.00;99.90;;;;;;5099976;28;20110;-67
2022/11/29 09:15:10;;;;;;;332.48;91.55;;;3.90;99.90;;;;;;5108864;28;20131;-66
2022/11/29 09:17:36;;;;;;;337.10;95.22;;;4.10;99.90;;;;;;5109102;27;20028;-66
2022/11/29 09:20:03;;;;;;;346.17;102.20;;;4.10;99.90;;;;;;5119766;27;20377;-66
2022/11/29 09:22:30;;;;;;;333.33;102.88;;;4.00;99.90;;;;;;5109997;27;20404;-67
2022/11/29 09:24:56;;;;;;;318.00;97.53;;;4.10;99.90;;;;;;5097005;28;20093;-67
2022/11/29 09:27:22;;;;;;;339.80;101.10;;;4.20;99.90;;;;;;5131533;27;20030;-67
2022/11/29 09:29:47;;;;;;;297.58;95.63;;;4.30;99.90;;;;;;5137883;27;20027;-67
2022/11/29 09:32:13;;;;;;;341.30;108.25;;;4.40;99.90;;;;;;5127849;27;20063;-67
2022/11/29 09:34:44;;;;;;;318.17;100.55;;;4.40;99.90;;;;;;5124187;27;20020;-67
2022/11/29 09:37:13;;;;;;;303.38;91.45;;;4.50;99.90;;;;;;5115885;28;20015;-67
2022/11/29 09:39:40;;;;;;;301.00;90.38;;;4.40;99.90;;;;;;5115863;28;20031;-67
2022/11/29 09:42:15;;;;;;;298.38;92.45;;;4.40;99.90;;;;;;5116991;28;20161;-67
2022/11/29 09:44:58;;;;;;;309.35;100.60;;;4.40;99.90;;;;;;5115529;28;20023;-67
2022/11/29 09:47:42;;;;;;;303.15;88.75;;;4.50;99.90;;;;;;5115921;28;20400;-67
2022/11/29 09:50:30;;;;;;;331.10;98.10;;;4.60;99.90;;;;;;5110360;27;20373;-67
2022/11/29 09:53:10;;;;;;;275.02;82.28;;;4.50;99.90;;;;;;5106667;27;20079;-67
2022/11/29 09:56:04;;;;;;;283.38;81.60;;;4.70;99.90;;;;;;5112386;27;20027;-67
2022/11/29 09:58:44;;;;;;;276.38;84.35;;;4.60;99.90;;;;;;5117036;27;20480;-67
2022/11/29 10:01:18;;;;;;;263.27;84.80;;;4.60;99.90;;;;;;5124471;27;20027;-67
2022/11/29 10:03:50;;;;;;;277.77;86.35;;;4.70;99.90;;;;;;5129200;27;20023;-67
2022/11/29 10:06:37;;;;;;;276.20;83.53;;;4.60;99.90;;;;;;5109782;28;20027;-67
2022/11/29 10:09:28;;;;;;;269.55;84.53;;;4.70;99.90;;;;;;5108965;27;20061;-67
2022/11/29 10:12:16;;;;;;;255.20;79.85;;;4.80;99.90;;;;;;5116728;28;20033;-67
2022/11/29 10:15:07;;;;;;;219.57;71.53;;;4.90;99.90;;;;;;5108246;27;20035;-66
2022/11/29 10:17:38;;;;;;;201.18;66.82;;;5.00;99.90;;;;;;5088453;28;20106;-67
2022/11/29 10:20:17;;;;;;;237.98;72.30;;;5.00;99.90;;;;;;5105694;27;20031;-67
2022/11/29 10:23:01;;;;;;;259.15;74.38;;;5.20;99.90;;;;;;5117156;27;20022;-68
2022/11/29 10:25:40;;;;;;;193.05;63.88;;;5.40;99.90;;;;;;5112749;27;20028;-65
2022/11/29 10:28:13;;;;;;;253.00;75.57;;;5.50;99.90;;;;;;5114134;27;20560;-65
2022/11/29 10:30:40;;;;;;;228.82;66.63;;;5.70;99.90;;;;;;5129243;27;20024;-65
2022/11/29 10:33:18;;;;;;;236.75;70.35;;;5.80;99.90;;;;;;5107976;27;20028;-65
2022/11/29 10:35:46;;;;;;;213.30;67.70;;;6.10;99.90;;;;;;5107026;27;20115;-65
2022/11/29 10:38:14;;;;;;;224.50;67.82;;;6.40;99.90;;;;;;5090598;28;20024;-66
2022/11/29 10:40:44;;;;;;;204.45;66.78;;;6.70;99.90;;;;;;5095531;28;20046;-66
2022/11/29 10:43:10;;;;;;;199.90;64.05;;;7.10;99.90;;;;;;5106305;28;20051;-66
2022/11/29 10:45:44;;;;;;;200.88;64.00;;;7.10;99.90;;;;;;5103949;27;20046;-66
2022/11/29 10:48:14;;;;;;;183.18;63.65;;;6.90;99.90;;;;;;5104855;27;20028;-66
2022/11/29 10:50:44;;;;;;;184.88;56.28;;;6.00;99.90;;;;;;5100321;28;20110;-66
2022/11/29 10:53:13;;;;;;;219.05;61.45;;;6.30;99.90;;;;;;5103991;27;20321;-66
2022/11/29 10:55:48;;;;;;;139.43;52.90;;;6.20;99.90;;;;;;5096278;28;20111;-66
2022/11/29 10:58:20;;;;;;;161.75;53.75;;;6.50;99.90;;;;;;5100600;27;20016;-66
2022/11/29 11:00:52;;;;;;;158.77;52.05;;;6.80;99.90;;;;;;5103450;28;20024;-66
2022/11/29 11:03:51;;;;;;;149.43;52.72;;;7.10;99.90;;;;;;5101658;28;20098;-66
2022/11/29 11:06:26;;;;;;;142.20;52.67;;;7.10;99.90;;;;;;5108170;27;20323;-66
2022/11/29 11:09:10;;;;;;;143.18;51.97;;;7.60;99.90;;;;;;5098526;27;20024;-66
2022/11/29 11:11:38;;;;;;;155.77;57.05;;;7.80;99.90;;;;;;5101921;28;20028;-66
2022/11/29 11:14:17;;;;;;;160.07;54.85;;;8.10;99.90;;;;;;5108530;27;20028;-65
2022/11/29 11:16:43;;;;;;;150.20;52.88;;;8.30;99.90;;;;;;5099558;28;20020;-66
2022/11/29 11:19:31;;;;;;;140.10;53.38;;;8.50;99.90;;;;;;5101209;28;20032;-66
2022/11/29 11:21:59;;;;;;;134.05;50.92;;;8.20;99.90;;;;;;5098554;28;20027;-66
2022/11/29 11:24:36;;;;;;;148.98;52.65;;;8.40;99.90;;;;;;5101532;27;20047;-66
2022/11/29 11:27:02;;;;;;;147.85;52.08;;;8.30;99.50;;;;;;5098014;27;20111;-66
2022/11/29 11:29:34;;;;;;;148.93;54.17;;;8.30;99.90;;;;;;5098623;28;20020;-66
2022/11/29 11:32:00;;;;;;;120.25;48.22;;;8.20;99.90;;;;;;5106855;27;20036;-66
2022/11/29 11:34:35;;;;;;;147.77;53.55;;;8.30;98.40;;;;;;5087938;27;20028;-66
2022/11/29 11:37:31;;;;;;;128.45;51.03;;;8.30;99.70;;;;;;5106422;28;20115;-66
2022/11/29 11:40:21;;;;;;;130.55;49.75;;;8.60;99.20;;;;;;5094731;28;20430;-66
2022/11/29 11:42:48;;;;;;;127.63;46.22;;;8.40;97.60;;;;;;5104150;28;20023;-66
2022/11/29 11:45:14;;;;;;;102.93;41.28;;;8.20;98.00;;;;;;5093714;28;20032;-66
2022/11/29 11:47:50;;;;;;;121.15;45.38;;;7.90;97.00;;;;;;5093170;28;20034;-66
2022/11/29 11:50:34;;;;;;;118.28;43.80;;;8.30;98.70;;;;;;5098671;28;20115;-66
2022/11/29 11:53:13;;;;;;;105.20;43.97;;;8.70;96.30;;;;;;5104699;27;20040;-66
2022/11/29 11:55:42;;;;;;;111.38;45.75;;;8.50;95.90;;;;;;5108787;28;20533;-66
2022/11/29 11:58:11;;;;;;;109.32;44.55;;;8.70;95.20;;;;;;5098265;28;20760;-66
2022/11/29 12:00:59;;;;;;;126.72;48.72;;;8.70;95.10;;;;;;5107573;28;20031;-66
2022/11/29 12:03:36;;;;;;;96.40;43.17;;;8.70;95.30;;;;;;5105227;28;20128;-66
2022/11/29 12:06:11;;;;;;;130.82;49.17;;;8.60;95.00;;;;;;5132715;28;20027;-66
2022/11/29 12:08:38;;;;;;;124.20;47.95;;;8.60;95.90;;;;;;5135490;27;20031;-66
2022/11/29 12:11:08;;;;;;;140.18;48.38;;;8.40;95.90;;;;;;5097152;28;20115;-66
2022/11/29 12:13:40;;;;;;;162.77;54.17;;;8.30;96.00;;;;;;5107215;27;20067;-66
2022/11/29 12:16:17;;;;;;;130.32;49.92;;;8.00;97.40;;;;;;5105277;28;20071;-66
2022/11/29 12:18:49;;;;;;;156.35;55.33;;;8.00;97.50;;;;;;5089296;28;20027;-66
2022/11/29 12:21:18;;;;;;;216.13;63.55;;;7.90;97.40;;;;;;5099359;27;20020;-66
2022/11/29 12:24:01;;;;;;;182.25;57.45;;;7.80;98.90;;;;;;5113880;27;20094;-66
2022/11/29 12:26:35;;;;;;;195.35;63.55;;;7.70;99.80;;;;;;5124521;27;20105;-66
2022/11/29 12:29:01;;;;;;;176.40;56.10;;;7.40;99.90;;;;;;5103964;28;20431;-66
2022/11/29 12:31:55;;;;;;;199.20;59.50;;;7.20;99.90;;;;;;5106463;28;20389;-67
2022/11/29 12:34:27;;;;;;;239.57;70.00;;;7.20;99.90;;;;;;5107221;27;20024;-66
2022/11/29 12:37:01;;;;;;;299.25;87.15;;;7.10;99.90;;;;;;5104370;27;20024;-67
2022/11/29 12:39:39;;;;;;;248.57;73.88;;;6.90;99.90;;;;;;5138689;27;20102;-66
2022/11/29 12:42:12;;;;;;;177.25;60.65;;;6.90;99.90;;;;;;5129604;27;20552;-66
2022/11/29 12:44:44;;;;;;;183.15;61.75;;;6.90;99.90;;;;;;5115639;27;20070;-66
2022/11/29 12:47:46;;;;;;;188.10;67.30;;;6.80;99.90;;;;;;5120263;27;20054;-66
2022/11/29 12:50:14;;;;;;;206.75;65.68;;;6.60;99.90;;;;;;5122502;27;20443;-66
2022/11/29 12:52:59;;;;;;;221.20;68.53;;;6.60;99.90;;;;;;5118445;28;20051;-66
2022/11/29 12:55:32;;;;;;;211.63;69.90;;;6.70;99.90;;;;;;5111075;28;20038;-66
2022/11/29 12:58:18;;;;;;;226.13;70.35;;;6.60;99.90;;;;;;5102692;27;20107;-66
2022/11/29 13:01:16;;;;;;;203.15;65.40;;;6.70;99.90;;;;;;5106416;28;20032;-66
2022/11/29 13:03:57;;;;;;;198.32;67.00;;;6.50;99.90;;;;;;5096049;27;20035;-66
2022/11/29 13:06:31;;;;;;;189.35;67.13;;;6.30;99.90;;;;;;5098162;27;20035;-66
2022/11/29 13:09:31;;;;;;;175.20;64.65;;;6.30;99.90;;;;;;5101855;27;20027;-66
2022/11/29 13:12:01;;;;;;;147.35;54.80;;;6.20;99.90;;;;;;5100338;27;20534;-66
2022/11/29 13:14:44;;;;;;;162.55;55.60;;;6.10;99.90;;;;;;5108759;27;20071;-66
2022/11/29 13:17:27;;;;;;;190.13;65.47;;;6.20;99.90;;;;;;5110207;28;20028;-66